Castor Plunge, Louisiana
Current Conditions -  °F | °C
As of 7:53 PM on Thursday 20 Nov 2014 (Local Time) from KAEX Reporting Station
Broken Clouds Broken Clouds  
Wind Chill: 56°   Ceiling: 9000
Heat Index: 56°   Visibility: 10mi
Dew Point: 50°   Wind: 7mph
Humidity: 80%   Direction: 150°SSE
Pressure: 30.14"   Gusts: NA
Location:  31.1516°N, 92.535°W
Report Text: KAEX 210153Z 15006KT 10SM BKN090 13/10 A3014 RMK AO2 SLP211 T01330100
Loading
Personal Weather Stations






























Interactive Weather Map New forecast layout! Learn more

10-Day Weather Forecast

Advertisements
Track Severe Weather on mobile